Terminal Aerodrome Forecast
Issued by NWS

Home | Current Version | Previous Version | Text Only | Print | Product List | Glossary On
Versions: 1 2 3 4 5 6 7 8 9 10 11 12 13 14 15 16 17 18 19 20
000
FTUS45 KABQ 270520
TAFROW
TAF
KROW 270520Z 2706/2806 17007KT P6SM VCSH BKN070 BKN100
      TEMPO 2707/2710 P6SM -TSRA OVC050CB
     FM271000 14006KT P6SM BKN015 BKN070
     FM271500 15007KT P6SM SCT040 SCT150=

USA.gov is the U.S. government's official web portal to all federal, state and local government web resources and services.